CheckWX is a tool to help pilots better visualize weather data.  It is not intended as a substitute for an official pre-flight weather briefing.

18:32:35 UTC

KMEM METAR
Memphis International Airport
Memphis, Tennessee, USA
Current

20 mins ago

KMEM 221813Z 36004KT 3SM RA BR FEW004 OVC010 11/11 A3015 RMK AO2 P0002 T01060106
Observed
Feb-22 @ 18:13 UTC
Wind
  • 360° at 4 KTS
Visibility
3 SM
Flight Rules
MVFR
Conditions
Rain, Mist
Cloud Levels
  • Few at 400' AGL
  • Overcast at 1,000' AGL
Temperature
11°C / 52°F
Dewpoint
11°C / 52°F
Humidity
100%
Altimeter
30.15" Hg
Pressure
1021.02 hPa
Current Rain
0.02"
Previous

39 mins ago

KMEM 221754Z 03004KT 7SM -RA OVC009 11/11 A3015 RMK AO2 CIG 007V014 SLP210 P0003 60036 T01110111 10111 20078 55004
Observed
Feb-22 @ 17:54 UTC
Wind
  • 030° at 4 KTS
Visibility
7 SM
Flight Rules
IFR
Conditions
Light Rain
Cloud Levels
  • Overcast at 900' AGL
Temperature
11°C / 52°F
Dewpoint
11°C / 52°F
Humidity
100%
Altimeter
30.15" Hg
Pressure
1021 hPa
Current Rain
0.03"
Previous

2 hours ago

KMEM 221654Z 00000KT 6SM -RA BR BKN006 OVC100 11/10 A3015 RMK AO2 PRESRR SLP208 P0002 T01060100
Observed
Feb-22 @ 16:54 UTC
Visibility
6 SM
Flight Rules
IFR
Conditions
Light Rain, Mist
Cloud Levels
  • Broken at 600' AGL
  • Overcast at 10,000' AGL
Temperature
11°C / 52°F
Dewpoint
10°C / 50°F
Humidity
94%
Altimeter
30.15" Hg
Pressure
1020.8 hPa
Current Rain
0.02"